4A6

Scottsboro Municipal-Word Field Airport

Scottsboro, Alabama, USA
METAR K4A6 122115Z AUTO 22004KT 10SM CLR 10/M00 A3015 RMK AO2
Observed Flight Rules
Dec-12 @ 21:15 UTC (23 minutes ago) Visual Flight Rules
Wind Visibility Clouds
220° at 4 knots 10 miles
  • Clear skies
Temperatures Readings
Current 10°C / 50°F
Dewpoint 0°C / 32°F
Humidity 50%
Altimeter 30.15" Hg
Pressure 1021 hPa
Elevation 198
METAR K4A6 122115Z AUTO 22004KT 10SM CLR 10/M00 A3015 RMK AO2
Observed Flight Rules
Dec-12 @ 21:15 UTC
(23 minutes ago)
VFR
Wind Visibility
220° at 4 knots 10 miles
Clouds
  • Clear skies
Temperature Dewpoint
10°C / 50°F 0°C / 32°F
Humidity Altimeter Pressure
50% 30.15" Hg 1021 hPa